Time;durP1;ratioP1;P1;durP2;ratioP2;P2;SDS_P1;SDS_P2;PMS_P1;PMS_P2;Temp;Humidity;BMP_temperature;BMP_pressure;BME280_temperature;BME280_humidity;BME280_pressure;Samples;Min_cycle;Max_cycle;Signal;HPM_P1;HPM_P2
2023/07/08 00:00:40;;;;;;;13.48;7.22;;;21.00;1.00;;;;;;5076489;28;20204;-77
2023/07/08 00:03:05;;;;;;;10.85;6.75;;;21.00;1.00;;;;;;5076374;28;20255;-78
2023/07/08 00:05:31;;;;;;;9.02;7.05;;;20.90;1.00;;;;;;5076341;28;20706;-77
2023/07/08 00:07:57;;;;;;;10.32;8.13;;;20.80;1.00;;;;;;5076409;28;20169;-77
2023/07/08 00:10:25;;;;;;;13.45;8.25;;;20.80;1.00;;;;;;5076537;28;20179;-76
2023/07/08 00:12:56;;;;;;;13.32;6.88;;;20.90;1.00;;;;;;5076358;28;20222;-77
2023/07/08 00:15:26;;;;;;;11.15;6.97;;;20.70;1.00;;;;;;5076199;28;20263;-77
2023/07/08 00:17:51;;;;;;;18.02;6.97;;;20.70;1.00;;;;;;5076255;28;20584;-77
2023/07/08 00:20:41;;;;;;;32.75;8.38;;;20.70;1.00;;;;;;5075822;28;20196;-78
2023/07/08 00:23:09;;;;;;;22.05;7.22;;;20.50;1.00;;;;;;5057539;28;20271;-76
2023/07/08 00:25:35;;;;;;;22.23;7.68;;;20.40;1.00;;;;;;5076196;28;20168;-78
2023/07/08 00:28:01;;;;;;;21.40;7.63;;;20.40;1.00;;;;;;5076137;28;20252;-78
2023/07/08 00:30:31;;;;;;;12.90;7.53;;;20.30;1.00;;;;;;5076201;28;20169;-78
2023/07/08 00:32:58;;;;;;;31.17;9.00;;;20.30;1.00;;;;;;5076054;28;20226;-78
2023/07/08 00:35:44;;;;;;;21.60;8.10;;;20.30;1.00;;;;;;5075658;28;20650;-78
2023/07/08 00:38:19;;;;;;;15.25;8.02;;;20.30;1.00;;;;;;5075777;28;20230;-77
2023/07/08 00:40:58;;;;;;;29.13;14.35;;;20.30;1.00;;;;;;5075696;28;20200;-78
2023/07/08 00:43:52;;;;;;;13.77;6.93;;;20.40;1.00;;;;;;5058058;28;20169;-77
2023/07/08 00:46:29;;;;;;;18.13;7.45;;;20.40;1.00;;;;;;5076093;28;20251;-76
2023/07/08 00:49:34;;;;;;;14.93;6.90;;;20.30;1.00;;;;;;5075516;28;20165;-77
2023/07/08 00:52:22;;;;;;;19.75;7.47;;;20.30;1.00;;;;;;5071898;28;20192;-77
2023/07/08 00:54:57;;;;;;;14.82;7.50;;;20.20;1.00;;;;;;5075833;28;20169;-77
2023/07/08 00:57:29;;;;;;;13.23;6.75;;;20.20;1.00;;;;;;5057779;28;20255;-78
2023/07/08 01:00:11;;;;;;;11.50;6.43;;;20.20;1.00;;;;;;5076032;28;20184;-77
2023/07/08 01:02:45;;;;;;;10.90;6.40;;;20.20;1.00;;;;;;5075589;28;20183;-77
2023/07/08 01:05:16;;;;;;;10.07;6.80;;;20.10;1.00;;;;;;5075152;28;20183;-78
2023/07/08 01:07:45;;;;;;;11.20;6.50;;;20.10;1.00;;;;;;5075388;28;20259;-78
2023/07/08 01:10:17;;;;;;;12.68;6.88;;;20.20;1.00;;;;;;5057471;28;20267;-78
2023/07/08 01:12:47;;;;;;;11.45;7.38;;;20.20;1.00;;;;;;5075427;28;20176;-77
2023/07/08 01:15:14;;;;;;;8.90;6.68;;;20.00;1.00;;;;;;5057463;28;20199;-77
2023/07/08 01:17:41;;;;;;;9.15;6.78;;;19.90;1.00;;;;;;5075015;28;20176;-76
2023/07/08 01:20:12;;;;;;;8.90;6.13;;;19.80;1.00;;;;;;5075069;28;20169;-77
2023/07/08 01:22:39;;;;;;;8.05;6.38;;;19.80;5.70;;;;;;5075280;28;20223;-77
2023/07/08 01:25:07;;;;;;;9.52;6.50;;;19.60;9.70;;;;;;5075104;28;20263;-76
2023/07/08 01:27:36;;;;;;;12.90;6.78;;;19.50;12.60;;;;;;5075264;28;20187;-77
2023/07/08 01:30:04;;;;;;;8.60;6.47;;;19.50;14.40;;;;;;5075137;28;20161;-78
2023/07/08 01:32:32;;;;;;;8.13;6.28;;;19.40;15.00;;;;;;5074551;28;20211;-76
2023/07/08 01:35:00;;;;;;;7.10;6.22;;;19.40;11.40;;;;;;5075236;28;20192;-76
2023/07/08 01:37:52;;;;;;;10.40;6.60;;;19.40;9.60;;;;;;5074788;28;20222;-76
2023/07/08 01:40:31;;;;;;;7.53;6.43;;;19.40;10.80;;;;;;5074898;28;20171;-78
2023/07/08 01:42:57;;;;;;;6.18;5.63;;;19.40;11.70;;;;;;5056207;28;20200;-77
2023/07/08 01:45:26;;;;;;;8.20;6.13;;;19.40;9.50;;;;;;5074893;28;20238;-77
2023/07/08 01:47:56;;;;;;;9.95;5.95;;;19.40;9.90;;;;;;5074532;28;20168;-77
2023/07/08 01:50:23;;;;;;;8.48;6.10;;;19.40;9.00;;;;;;5074628;28;20157;-78
2023/07/08 01:52:50;;;;;;;8.73;5.97;;;19.40;9.10;;;;;;5056635;28;20169;-77
2023/07/08 01:55:24;;;;;;;9.25;6.32;;;19.40;8.70;;;;;;5056754;28;20168;-77
2023/07/08 01:57:52;;;;;;;7.15;5.78;;;19.40;10.30;;;;;;5074544;28;20215;-77
2023/07/08 02:00:19;;;;;;;6.18;5.60;;;19.30;11.00;;;;;;5074494;28;20169;-77
2023/07/08 02:02:44;;;;;;;6.97;6.18;;;19.30;13.70;;;;;;5074002;28;20526;-77
2023/07/08 02:05:10;;;;;;;13.18;6.28;;;19.30;13.40;;;;;;5074404;28;20165;-77
2023/07/08 02:07:35;;;;;;;7.80;6.72;;;19.30;13.10;;;;;;5074449;28;20172;-77
2023/07/08 02:10:01;;;;;;;7.07;6.28;;;19.30;11.10;;;;;;5074134;28;20571;-77
2023/07/08 02:12:27;;;;;;;9.88;8.35;;;19.30;9.50;;;;;;5074056;28;20558;-76
2023/07/08 02:14:52;;;;;;;12.32;7.97;;;19.30;12.70;;;;;;5074242;28;20242;-77
2023/07/08 02:17:18;;;;;;;9.25;8.13;;;19.30;12.30;;;;;;5073823;28;20168;-77
2023/07/08 02:19:44;;;;;;;8.98;7.45;;;19.30;12.40;;;;;;5073943;28;20722;-77
2023/07/08 02:22:10;;;;;;;9.40;6.38;;;19.40;9.70;;;;;;5073918;28;20261;-76
2023/07/08 02:24:35;;;;;;;9.68;6.30;;;19.40;10.60;;;;;;5074022;28;20208;-75
2023/07/08 02:27:01;;;;;;;7.78;6.72;;;19.30;15.10;;;;;;5073971;28;20243;-76
2023/07/08 02:29:27;;;;;;;8.50;6.68;;;19.20;17.90;;;;;;5073825;28;20169;-76
2023/07/08 02:31:52;;;;;;;8.80;6.20;;;19.10;22.10;;;;;;5073582;28;20177;-76
2023/07/08 02:34:18;;;;;;;9.30;7.07;;;19.00;25.50;;;;;;5073898;28;20191;-76
2023/07/08 02:36:44;;;;;;;9.40;6.50;;;19.00;28.40;;;;;;5073772;28;20621;-77
2023/07/08 02:39:11;;;;;;;8.85;6.35;;;18.90;32.50;;;;;;5073233;28;20221;-77
2023/07/08 02:41:37;;;;;;;10.38;7.15;;;18.90;37.90;;;;;;5073617;28;20261;-76
2023/07/08 02:44:02;;;;;;;9.75;6.82;;;18.80;42.90;;;;;;5073597;28;20165;-77
2023/07/08 02:46:28;;;;;;;10.45;6.53;;;18.70;46.40;;;;;;5073399;28;20526;-77
2023/07/08 02:48:54;;;;;;;8.05;7.18;;;18.70;47.00;;;;;;5073697;28;20655;-76
2023/07/08 02:51:19;;;;;;;7.93;6.80;;;18.70;44.40;;;;;;5055604;28;20168;-76
2023/07/08 02:53:45;;;;;;;10.60;6.50;;;18.80;44.40;;;;;;5055610;28;20176;-77
2023/07/08 02:56:10;;;;;;;7.65;6.70;;;18.90;40.60;;;;;;5072672;28;20697;-77
2023/07/08 02:58:36;;;;;;;10.40;6.78;;;18.90;41.40;;;;;;5073606;28;20165;-77
2023/07/08 03:01:02;;;;;;;16.88;7.05;;;18.90;43.40;;;;;;5072943;28;20200;-77
2023/07/08 03:03:29;;;;;;;9.57;6.93;;;19.00;35.10;;;;;;5073324;28;20161;-76
2023/07/08 03:05:59;;;;;;;8.93;6.68;;;18.90;35.70;;;;;;5073373;28;20169;-77
2023/07/08 03:08:26;;;;;;;8.50;6.90;;;18.80;40.20;;;;;;5073352;28;20196;-76
2023/07/08 03:11:03;;;;;;;10.13;7.53;;;18.80;40.80;;;;;;5073327;28;20658;-76
2023/07/08 03:13:29;;;;;;;8.23;6.53;;;18.90;37.80;;;;;;5072787;28;20199;-76
2023/07/08 03:15:59;;;;;;;9.45;7.32;;;18.90;33.80;;;;;;5073019;28;20196;-77
2023/07/08 03:18:26;;;;;;;10.20;7.10;;;19.00;32.20;;;;;;5073025;28;20169;-76
2023/07/08 03:20:53;;;;;;;14.18;7.13;;;19.10;29.60;;;;;;5072985;28;20755;-76
2023/07/08 03:23:19;;;;;;;10.70;7.28;;;19.10;26.70;;;;;;5073070;28;20259;-76
2023/07/08 03:25:44;;;;;;;9.52;6.82;;;19.10;26.20;;;;;;5073373;28;20196;-77
2023/07/08 03:28:14;;;;;;;9.18;7.30;;;19.10;26.30;;;;;;5054916;28;20176;-77
2023/07/08 03:30:41;;;;;;;11.07;7.30;;;18.90;28.40;;;;;;5073037;28;20160;-77
2023/07/08 03:33:07;;;;;;;8.95;6.85;;;18.90;31.00;;;;;;5072863;28;20165;-77
2023/07/08 03:35:33;;;;;;;10.48;7.10;;;18.90;30.00;;;;;;5055041;28;20184;-77
2023/07/08 03:37:58;;;;;;;10.02;6.88;;;18.90;30.00;;;;;;5072852;28;20208;-77
2023/07/08 03:40:24;;;;;;;8.25;6.78;;;18.90;22.80;;;;;;5072836;28;20222;-77
2023/07/08 03:42:49;;;;;;;9.50;6.60;;;18.80;23.40;;;;;;5072546;28;20176;-77
2023/07/08 03:45:15;;;;;;;9.18;6.65;;;18.90;23.10;;;;;;5072855;28;20169;-77
2023/07/08 03:47:40;;;;;;;7.60;6.85;;;18.90;22.20;;;;;;5055238;28;20649;-77
2023/07/08 03:50:11;;;;;;;13.18;6.68;;;18.90;23.20;;;;;;5072718;28;20165;-76
2023/07/08 03:52:36;;;;;;;9.57;6.43;;;18.90;22.60;;;;;;5072958;28;20168;-76
2023/07/08 03:55:03;;;;;;;8.30;7.10;;;18.90;21.30;;;;;;5072916;28;20268;-77
2023/07/08 03:57:29;;;;;;;10.63;6.90;;;19.00;18.60;;;;;;5072466;28;20205;-76
2023/07/08 03:59:54;;;;;;;9.05;7.43;;;19.20;14.50;;;;;;5055217;28;20204;-78
2023/07/08 04:02:20;;;;;;;8.60;6.82;;;19.10;13.80;;;;;;5072702;28;20201;-77
2023/07/08 04:04:46;;;;;;;7.82;6.45;;;19.10;17.80;;;;;;5072412;28;20234;-77
2023/07/08 04:07:12;;;;;;;11.85;6.60;;;19.00;21.70;;;;;;5075271;28;20184;-78
2023/07/08 04:09:38;;;;;;;9.65;6.85;;;19.00;24.40;;;;;;5076490;28;20180;-76
2023/07/08 04:12:04;;;;;;;8.60;6.55;;;19.00;22.80;;;;;;5075850;28;20168;-78
2023/07/08 04:14:30;;;;;;;12.68;6.78;;;19.10;22.90;;;;;;5076761;28;20180;-77
2023/07/08 04:16:58;;;;;;;12.60;7.05;;;19.40;19.50;;;;;;5076284;28;20550;-76
2023/07/08 04:19:26;;;;;;;7.68;6.55;;;19.90;10.60;;;;;;5076043;28;20251;-78
2023/07/08 04:21:52;;;;;;;8.48;6.65;;;20.50;1.00;;;;;;5075854;28;20235;-77
2023/07/08 04:24:18;;;;;;;8.35;6.47;;;21.30;1.00;;;;;;5076402;28;20290;-76
2023/07/08 04:26:46;;;;;;;11.25;5.97;;;22.00;1.00;;;;;;5075483;28;20200;-76
2023/07/08 04:29:14;;;;;;;9.85;6.78;;;22.60;1.00;;;;;;5075962;28;20230;-78
2023/07/08 04:31:39;;;;;;;14.95;6.95;;;23.00;1.00;;;;;;5058210;28;20172;-78
2023/07/08 04:34:06;;;;;;;11.13;6.65;;;23.10;1.00;;;;;;5075997;28;20234;-77
2023/07/08 04:36:32;;;;;;;12.15;6.65;;;23.30;1.00;;;;;;5076091;28;20172;-75
2023/07/08 04:38:58;;;;;;;10.52;6.35;;;23.30;1.00;;;;;;5075427;28;20220;-76
2023/07/08 04:41:25;;;;;;;8.35;6.55;;;23.60;1.00;;;;;;5075065;28;20218;-76
2023/07/08 04:43:53;;;;;;;14.23;6.97;;;23.70;1.00;;;;;;5075861;28;20248;-75
2023/07/08 04:46:34;;;;;;;9.68;6.72;;;24.50;1.00;;;;;;5075553;28;20179;-74
2023/07/08 04:49:01;;;;;;;9.80;6.78;;;25.40;1.00;;;;;;5075470;28;20255;-75
2023/07/08 04:51:27;;;;;;;8.43;6.13;;;26.20;99.90;;;;;;5075584;28;20628;-75
2023/07/08 04:53:53;;;;;;;11.35;6.68;;;27.20;99.90;;;;;;5075832;28;20715;-75
2023/07/08 04:56:18;;;;;;;9.52;6.57;;;27.90;1.00;;;;;;5075319;28;20256;-74
2023/07/08 04:58:44;;;;;;;8.65;6.95;;;28.20;1.00;;;;;;5075212;28;20172;-74
2023/07/08 05:01:10;;;;;;;10.35;6.35;;;28.30;95.80;;;;;;5075206;28;20238;-74
2023/07/08 05:03:35;;;;;;;13.20;6.57;;;28.90;99.90;;;;;;5075412;28;20168;-74
2023/07/08 05:06:01;;;;;;;13.90;6.95;;;29.50;1.00;;;;;;5075319;28;20265;-74
2023/07/08 05:08:26;;;;;;;9.70;6.63;;;30.40;99.90;;;;;;5075245;28;20169;-75
2023/07/08 05:10:52;;;;;;;8.43;6.80;;;31.00;1.00;;;;;;5074603;28;20177;-74
2023/07/08 05:13:18;;;;;;;13.20;6.90;;;31.50;1.00;;;;;;5074863;28;20215;-74
2023/07/08 05:15:43;;;;;;;10.52;6.97;;;31.80;1.00;;;;;;5075040;28;20675;-74
2023/07/08 05:18:09;;;;;;;8.45;6.22;;;31.50;1.00;;;;;;5074285;28;20184;-75
2023/07/08 05:20:36;;;;;;;9.13;6.97;;;32.10;1.00;;;;;;5057058;28;20192;-74
2023/07/08 05:23:02;;;;;;;9.90;5.95;;;32.50;1.00;;;;;;5057042;28;20176;-75
2023/07/08 05:25:31;;;;;;;8.73;6.65;;;32.80;99.90;;;;;;5074572;28;20521;-75
2023/07/08 05:27:57;;;;;;;9.25;6.10;;;33.50;99.90;;;;;;5074833;28;20215;-74
2023/07/08 05:30:22;;;;;;;9.55;6.63;;;34.00;99.90;;;;;;5074891;28;20172;-74
2023/07/08 05:32:48;;;;;;;8.18;6.90;;;34.60;99.90;;;;;;5074775;28;20173;-74
2023/07/08 05:35:14;;;;;;;7.75;7.03;;;34.70;99.90;;;;;;5074870;28;20260;-74
2023/07/08 05:37:40;;;;;;;7.50;6.80;;;34.70;99.90;;;;;;5074573;28;20230;-75
2023/07/08 05:40:09;;;;;;;12.23;6.80;;;34.40;99.90;;;;;;5073807;28;20204;-74
2023/07/08 05:42:36;;;;;;;14.25;7.30;;;34.00;99.90;;;;;;5074354;28;20191;-74
2023/07/08 05:45:02;;;;;;;6.95;6.35;;;34.50;99.90;;;;;;5074716;28;20164;-74
2023/07/08 05:47:28;;;;;;;8.85;6.88;;;35.30;99.90;;;;;;5074221;28;20176;-75
2023/07/08 05:49:54;;;;;;;8.32;6.63;;;35.30;99.90;;;;;;5074281;28;20248;-75
2023/07/08 05:52:19;;;;;;;7.60;6.78;;;35.60;99.90;;;;;;5074195;28;20169;-75
2023/07/08 05:54:45;;;;;;;10.48;6.75;;;35.80;99.90;;;;;;5073913;28;20663;-74
2023/07/08 05:57:11;;;;;;;10.68;6.30;;;36.30;99.90;;;;;;5074018;28;20251;-76
2023/07/08 05:59:40;;;;;;;8.82;6.75;;;36.80;99.90;;;;;;5074127;28;20187;-75
2023/07/08 06:02:06;;;;;;;7.45;6.75;;;37.00;99.90;;;;;;5073930;28;20216;-75
2023/07/08 06:04:32;;;;;;;7.68;6.88;;;37.30;99.90;;;;;;5074014;28;20175;-75
2023/07/08 06:06:58;;;;;;;14.93;6.90;;;37.50;99.90;;;;;;5074191;28;20180;-76
2023/07/08 06:09:24;;;;;;;7.35;6.57;;;38.00;98.70;;;;;;5073554;28;20255;-76
2023/07/08 06:11:49;;;;;;;11.00;6.70;;;38.20;90.70;;;;;;5073749;28;20168;-77
2023/07/08 06:14:15;;;;;;;10.02;6.55;;;38.80;80.80;;;;;;5056027;28;20179;-77
2023/07/08 06:16:40;;;;;;;11.13;7.05;;;38.70;61.60;;;;;;5055757;28;20679;-78
2023/07/08 06:19:06;;;;;;;8.75;6.60;;;38.90;58.10;;;;;;5073646;28;20172;-77
2023/07/08 06:21:32;;;;;;;7.43;6.72;;;39.00;47.40;;;;;;5073511;28;20203;-77
2023/07/08 06:23:58;;;;;;;7.05;5.85;;;38.90;44.50;;;;;;5073453;28;20180;-78
2023/07/08 06:26:23;;;;;;;7.07;6.32;;;38.70;38.50;;;;;;5055464;28;20639;-77
2023/07/08 06:28:49;;;;;;;7.95;5.50;;;39.60;38.30;;;;;;5073716;28;20516;-78
2023/07/08 06:31:15;;;;;;;6.43;5.82;;;39.50;30.70;;;;;;5073756;28;20643;-78
2023/07/08 06:33:42;;;;;;;6.65;5.85;;;39.50;26.20;;;;;;5073819;28;20168;-78
2023/07/08 06:36:07;;;;;;;10.05;6.43;;;39.20;22.40;;;;;;5073179;28;20176;-79
2023/07/08 06:38:33;;;;;;;7.03;5.80;;;39.20;21.40;;;;;;5072746;28;20222;-81
2023/07/08 06:40:59;;;;;;;7.15;5.93;;;39.70;19.50;;;;;;5072860;28;20693;-80
2023/07/08 06:43:24;;;;;;;6.05;5.57;;;40.30;18.10;;;;;;5073535;28;20245;-79
2023/07/08 06:45:50;;;;;;;6.00;5.50;;;39.40;11.90;;;;;;5073414;28;20168;-80
2023/07/08 06:48:16;;;;;;;5.82;5.32;;;39.60;13.80;;;;;;5072895;28;20175;-80
2023/07/08 06:50:45;;;;;;;5.95;5.40;;;40.30;13.60;;;;;;5073393;28;20611;-79
2023/07/08 06:53:11;;;;;;;16.83;6.88;;;40.20;10.90;;;;;;5072421;28;20200;-79
2023/07/08 06:55:36;;;;;;;6.20;5.57;;;41.40;6.20;;;;;;5055131;28;20214;-79
2023/07/08 06:58:02;;;;;;;10.15;5.88;;;41.70;2.60;;;;;;5073000;28;20164;-79
2023/07/08 07:00:27;;;;;;;9.13;5.72;;;41.90;1.00;;;;;;5073006;28;20247;-79
2023/07/08 07:02:53;;;;;;;7.95;5.63;;;42.10;1.00;;;;;;5073099;28;20190;-80
2023/07/08 07:05:19;;;;;;;6.95;6.38;;;41.90;1.00;;;;;;5073135;28;20172;-78
2023/07/08 07:07:44;;;;;;;9.30;6.22;;;41.40;1.00;;;;;;5054944;28;20616;-80
2023/07/08 07:10:10;;;;;;;6.78;6.18;;;40.40;1.00;;;;;;5054669;28;20258;-79
2023/07/08 07:12:35;;;;;;;6.57;6.07;;;41.00;1.00;;;;;;5072613;28;20474;-79
2023/07/08 07:15:01;;;;;;;6.50;5.90;;;40.70;1.00;;;;;;5072970;28;20198;-79
2023/07/08 07:17:27;;;;;;;7.60;6.00;;;41.60;1.00;;;;;;5054693;28;20588;-79
2023/07/08 07:19:53;;;;;;;6.63;6.07;;;42.20;1.00;;;;;;5072469;28;20623;-79
2023/07/08 07:22:19;;;;;;;7.55;6.10;;;40.00;1.00;;;;;;5072611;28;20196;-79
2023/07/08 07:24:44;;;;;;;7.07;6.38;;;39.60;1.00;;;;;;5072437;28;20569;-79
2023/07/08 07:27:10;;;;;;;6.82;6.28;;;40.10;1.00;;;;;;5072970;28;20171;-80
2023/07/08 07:29:45;;;;;;;7.78;6.47;;;39.40;1.00;;;;;;5072374;28;20203;-77
2023/07/08 07:32:12;;;;;;;7.03;6.32;;;41.50;1.00;;;;;;5072794;28;20634;-77
2023/07/08 07:34:38;;;;;;;8.00;7.03;;;42.60;1.00;;;;;;5072222;28;20226;-79
2023/07/08 07:37:05;;;;;;;7.20;6.50;;;42.20;1.00;;;;;;5072692;28;20257;-77
2023/07/08 07:39:31;;;;;;;6.93;6.32;;;42.50;1.00;;;;;;5072025;28;20239;-77
2023/07/08 07:41:56;;;;;;;6.85;6.07;;;41.90;1.00;;;;;;5074701;28;20204;-77
2023/07/08 07:44:22;;;;;;;7.22;6.60;;;41.30;1.00;;;;;;5076390;28;20168;-77
2023/07/08 07:46:47;;;;;;;6.85;6.15;;;41.50;1.00;;;;;;5076581;28;20168;-77
2023/07/08 07:49:14;;;;;;;7.88;7.03;;;42.50;1.00;;;;;;5076113;28;20244;-79
2023/07/08 07:51:39;;;;;;;7.10;6.40;;;42.50;1.00;;;;;;5076382;28;20690;-77
2023/07/08 07:54:05;;;;;;;9.07;6.47;;;41.60;1.00;;;;;;5076176;28;20194;-78
2023/07/08 07:56:30;;;;;;;6.93;6.30;;;40.50;1.00;;;;;;5076631;28;20662;-79
2023/07/08 07:58:56;;;;;;;6.88;6.28;;;40.90;1.00;;;;;;5076079;28;20157;-79
2023/07/08 08:01:21;;;;;;;6.75;6.15;;;40.90;1.00;;;;;;5076347;28;20257;-78
2023/07/08 08:03:50;;;;;;;7.03;6.43;;;41.10;1.00;;;;;;5076105;28;20635;-77
2023/07/08 08:06:17;;;;;;;6.75;6.20;;;41.20;1.00;;;;;;5076178;28;20252;-79
2023/07/08 08:08:44;;;;;;;6.82;6.03;;;40.80;1.00;;;;;;5075308;28;20160;-78
2023/07/08 08:11:09;;;;;;;7.75;6.32;;;39.80;1.00;;;;;;5076423;28;20259;-80
2023/07/08 08:13:35;;;;;;;7.15;6.55;;;38.80;1.00;;;;;;5076290;28;20259;-77
2023/07/08 08:16:00;;;;;;;8.00;6.85;;;38.80;1.00;;;;;;5076092;28;20666;-80
2023/07/08 08:18:26;;;;;;;8.20;7.53;;;39.90;1.00;;;;;;5075387;28;20221;-79
2023/07/08 08:20:52;;;;;;;7.43;6.80;;;39.00;1.00;;;;;;5057812;28;20204;-79
2023/07/08 08:23:17;;;;;;;7.60;6.97;;;38.60;1.00;;;;;;5075886;28;20183;-79
2023/07/08 08:25:43;;;;;;;8.10;7.30;;;39.30;1.00;;;;;;5075421;28;20571;-79
2023/07/08 08:28:08;;;;;;;7.35;6.75;;;40.70;1.00;;;;;;5057830;28;20164;-79
2023/07/08 08:30:34;;;;;;;8.00;7.13;;;41.30;1.00;;;;;;5075417;28;20156;-80
2023/07/08 08:33:01;;;;;;;6.72;6.15;;;41.00;1.00;;;;;;5075320;28;20266;-79
2023/07/08 08:35:27;;;;;;;8.75;8.05;;;41.00;1.00;;;;;;5075963;28;20176;-80
2023/07/08 08:37:56;;;;;;;7.75;7.15;;;41.50;1.00;;;;;;5075467;28;20828;-80
2023/07/08 08:40:22;;;;;;;7.80;7.10;;;40.70;1.00;;;;;;5075630;28;20218;-80
2023/07/08 08:43:03;;;;;;;9.35;8.10;;;41.40;1.00;;;;;;5075445;28;20171;-79
2023/07/08 08:45:47;;;;;;;7.70;6.75;;;42.50;1.00;;;;;;5076071;28;20176;-79
2023/07/08 08:48:16;;;;;;;7.60;6.90;;;43.50;1.00;;;;;;5074768;28;20176;-80
2023/07/08 08:50:43;;;;;;;7.47;6.88;;;42.80;1.00;;;;;;5075461;28;20167;-78
2023/07/08 08:53:13;;;;;;;7.25;6.63;;;41.60;1.00;;;;;;5074313;28;20190;-80
2023/07/08 08:55:40;;;;;;;11.82;7.57;;;42.30;1.00;;;;;;5075751;28;20175;-79
2023/07/08 08:58:11;;;;;;;7.30;6.70;;;43.40;1.00;;;;;;5075687;28;20187;-79
2023/07/08 09:00:56;;;;;;;10.93;7.25;;;44.30;1.00;;;;;;5074807;28;20313;-80
2023/07/08 09:03:43;;;;;;;7.88;7.05;;;45.00;1.00;;;;;;5075204;28;20172;-78
2023/07/08 09:06:16;;;;;;;7.55;6.80;;;45.70;1.00;;;;;;5074850;28;20164;-78
2023/07/08 09:08:42;;;;;;;8.35;7.55;;;46.00;1.00;;;;;;5074792;28;20612;-79
2023/07/08 09:11:15;;;;;;;7.63;6.95;;;46.80;1.00;;;;;;5075642;28;20229;-78
2023/07/08 09:13:40;;;;;;;10.00;7.07;;;46.80;1.00;;;;;;5075469;28;20168;-78
2023/07/08 09:16:29;;;;;;;7.35;6.85;;;47.20;1.00;;;;;;5074662;28;20188;-79
2023/07/08 09:19:06;;;;;;;8.32;7.25;;;47.60;1.00;;;;;;5075200;28;20160;-80
2023/07/08 09:21:59;;;;;;;7.85;7.22;;;46.90;1.00;;;;;;5074617;28;20230;-79
2023/07/08 09:24:30;;;;;;;7.53;6.80;;;46.40;1.00;;;;;;5064468;28;20205;-80
2023/07/08 09:26:59;;;;;;;8.38;7.57;;;46.20;1.00;;;;;;5075328;28;20168;-78
2023/07/08 09:29:25;;;;;;;8.48;7.78;;;46.70;1.00;;;;;;5074804;28;20171;-79
2023/07/08 09:31:51;;;;;;;8.23;7.35;;;45.90;1.00;;;;;;5074147;28;20168;-78
2023/07/08 09:34:22;;;;;;;7.78;7.07;;;43.20;1.00;;;;;;5074710;28;20207;-79
2023/07/08 09:36:49;;;;;;;8.27;7.38;;;44.10;1.00;;;;;;5074806;28;20201;-79
2023/07/08 09:39:18;;;;;;;8.07;7.30;;;44.60;1.00;;;;;;5074446;28;20224;-80
2023/07/08 09:41:46;;;;;;;8.00;7.25;;;44.50;1.00;;;;;;5073887;28;20239;-79
2023/07/08 09:44:38;;;;;;;8.25;7.30;;;44.00;1.00;;;;;;5056258;28;20206;-81
2023/07/08 09:47:30;;;;;;;7.82;7.15;;;42.90;1.00;;;;;;5052310;28;20177;-80
2023/07/08 09:49:57;;;;;;;9.57;7.50;;;41.00;1.00;;;;;;5074290;28;20683;-81
2023/07/08 09:52:23;;;;;;;8.88;7.88;;;40.40;1.00;;;;;;5074190;28;20214;-80
2023/07/08 09:54:49;;;;;;;8.27;7.40;;;40.40;1.00;;;;;;5074112;28;20195;-80
2023/07/08 09:57:25;;;;;;;7.85;7.05;;;41.60;1.00;;;;;;5074135;28;20177;-81
2023/07/08 09:59:57;;;;;;;7.18;6.68;;;42.40;1.00;;;;;;5073421;28;20254;-80
2023/07/08 10:02:40;;;;;;;10.15;7.80;;;41.70;1.00;;;;;;5073854;28;20678;-80
2023/07/08 10:05:22;;;;;;;7.95;7.32;;;43.00;1.00;;;;;;5073496;28;20297;-81
2023/07/08 10:07:52;;;;;;;7.82;7.22;;;43.00;1.00;;;;;;5073798;28;20171;-81
2023/07/08 10:10:22;;;;;;;7.80;7.10;;;42.60;1.00;;;;;;5073878;28;20172;-79
2023/07/08 10:13:02;;;;;;;8.30;7.05;;;42.00;1.00;;;;;;5073586;28;20203;-80
2023/07/08 10:15:36;;;;;;;8.52;7.50;;;42.20;1.00;;;;;;5073125;28;20203;-81
2023/07/08 10:18:02;;;;;;;9.65;6.95;;;42.10;1.00;;;;;;5077023;28;20195;-81
2023/07/08 10:20:54;;;;;;;7.72;7.13;;;42.20;1.00;;;;;;5076731;28;20631;-81
2023/07/08 10:23:31;;;;;;;7.60;6.90;;;40.00;1.00;;;;;;5074862;28;20187;-81
2023/07/08 10:26:15;;;;;;;7.55;6.85;;;37.70;1.00;;;;;;5076898;28;20191;-81
2023/07/08 10:29:16;;;;;;;8.20;7.03;;;38.00;1.00;;;;;;5078323;28;20172;-82
2023/07/08 10:31:46;;;;;;;7.68;7.03;;;38.10;1.00;;;;;;5078919;28;20194;-80
2023/07/08 10:34:39;;;;;;;8.20;7.55;;;38.80;1.00;;;;;;5056117;28;20650;-81
2023/07/08 10:37:28;;;;;;;8.00;7.20;;;39.10;1.00;;;;;;5082552;28;20174;-82
2023/07/08 10:40:12;;;;;;;8.25;7.47;;;38.90;1.00;;;;;;5070722;28;20204;-81
2023/07/08 10:42:54;;;;;;;10.68;9.55;;;39.60;1.00;;;;;;5079876;28;20243;-81
2023/07/08 10:45:31;;;;;;;7.95;7.22;;;39.00;1.00;;;;;;5080542;28;20254;-81
2023/07/08 10:48:23;;;;;;;9.52;7.75;;;39.40;1.00;;;;;;5077722;28;20631;-81
2023/07/08 10:51:04;;;;;;;9.50;7.03;;;39.00;1.00;;;;;;5076141;28;20545;-81
2023/07/08 10:54:03;;;;;;;7.93;7.13;;;38.60;1.00;;;;;;5081623;28;20176;-82
2023/07/08 10:56:39;;;;;;;7.57;6.82;;;40.40;1.00;;;;;;5080895;28;20164;-82
2023/07/08 10:59:42;;;;;;;8.50;7.32;;;40.10;1.00;;;;;;5077887;28;20159;-82
2023/07/08 11:02:20;;;;;;;7.40;6.80;;;39.70;1.00;;;;;;5082190;28;20685;-82
2023/07/08 11:04:49;;;;;;;7.75;7.05;;;39.90;1.00;;;;;;5079515;28;20167;-82
2023/07/08 11:07:30;;;;;;;7.82;7.18;;;40.80;1.00;;;;;;5080130;28;20178;-83
2023/07/08 11:10:00;;;;;;;10.32;8.52;;;40.20;1.00;;;;;;5061993;28;20608;-83
2023/07/08 11:12:35;;;;;;;8.30;7.50;;;39.00;1.00;;;;;;5079522;28;20179;-83
2023/07/08 11:15:25;;;;;;;8.52;7.63;;;38.10;1.00;;;;;;5074413;28;20260;-83
2023/07/08 11:18:19;;;;;;;8.75;7.32;;;36.10;1.00;;;;;;5073735;28;20159;-81
2023/07/08 11:20:56;;;;;;;8.40;7.65;;;36.10;1.00;;;;;;5068334;28;20231;-82
2023/07/08 11:23:38;;;;;;;8.45;7.57;;;36.40;1.00;;;;;;5078361;28;20167;-81
2023/07/08 11:26:15;;;;;;;6.63;6.03;;;36.30;1.00;;;;;;5073291;28;20171;-82
2023/07/08 11:28:43;;;;;;;7.30;6.53;;;36.10;1.00;;;;;;5072908;28;20259;-83
2023/07/08 11:31:09;;;;;;;5.93;5.40;;;36.10;1.00;;;;;;5072887;28;20251;-82
2023/07/08 11:33:36;;;;;;;7.88;6.75;;;36.60;1.00;;;;;;5072689;28;20186;-82
2023/07/08 11:36:03;;;;;;;6.93;6.22;;;36.50;1.00;;;;;;5072481;28;20624;-82
2023/07/08 11:38:31;;;;;;;8.60;6.43;;;36.70;1.00;;;;;;5072772;28;20216;-83
2023/07/08 11:41:04;;;;;;;7.22;6.38;;;37.30;1.00;;;;;;5072250;28;20658;-83
2023/07/08 11:43:56;;;;;;;6.20;5.68;;;37.20;1.00;;;;;;5073294;28;20172;-81
2023/07/08 11:46:31;;;;;;;8.43;6.18;;;36.70;1.00;;;;;;5073259;28;20176;-82
2023/07/08 11:49:02;;;;;;;9.48;6.68;;;36.40;1.00;;;;;;5072441;28;20159;-82
2023/07/08 11:51:34;;;;;;;7.25;6.50;;;36.80;1.00;;;;;;5072295;28;20696;-83
2023/07/08 11:54:12;;;;;;;7.35;6.40;;;37.00;1.00;;;;;;5072178;28;20259;-81
2023/07/08 11:57:17;;;;;;;7.05;6.28;;;36.60;1.00;;;;;;5072188;28;20172;-82
2023/07/08 11:59:44;;;;;;;7.57;6.43;;;36.70;1.00;;;;;;5032466;28;20226;-81
2023/07/08 12:02:26;;;;;;;8.70;6.20;;;36.10;1.00;;;;;;5072720;28;20219;-82
2023/07/08 12:05:00;;;;;;;6.05;5.43;;;35.90;1.00;;;;;;5072708;28;20251;-80
2023/07/08 12:07:44;;;;;;;6.20;5.60;;;35.40;4.70;;;;;;5072469;28;20710;-79
2023/07/08 12:10:17;;;;;;;6.30;5.70;;;35.10;23.30;;;;;;5072279;28;20179;-79
2023/07/08 12:12:45;;;;;;;7.90;5.10;;;35.30;47.80;;;;;;5072420;28;20173;-79
2023/07/08 12:15:13;;;;;;;6.05;5.55;;;35.20;61.60;;;;;;5072649;28;20201;-79
2023/07/08 12:17:39;;;;;;;7.95;5.20;;;35.00;91.50;;;;;;5054220;28;20181;-78
2023/07/08 12:20:20;;;;;;;6.30;5.60;;;34.90;99.90;;;;;;5071973;28;20587;-79
2023/07/08 12:22:47;;;;;;;8.82;6.07;;;35.10;99.90;;;;;;5072250;28;20240;-79
2023/07/08 12:25:16;;;;;;;7.28;6.38;;;35.00;99.90;;;;;;5071576;28;20168;-79
2023/07/08 12:27:42;;;;;;;7.07;5.03;;;34.90;99.90;;;;;;5056225;28;20594;-79
2023/07/08 12:30:11;;;;;;;6.35;5.72;;;34.80;99.90;;;;;;5075179;28;20168;-79
2023/07/08 12:32:37;;;;;;;7.20;6.10;;;35.10;99.90;;;;;;5056704;28;20623;-80
2023/07/08 12:35:05;;;;;;;8.90;5.90;;;35.40;99.90;;;;;;5074915;28;20639;-80
2023/07/08 12:37:31;;;;;;;8.15;5.70;;;35.80;99.90;;;;;;5074182;28;20172;-79
2023/07/08 12:40:04;;;;;;;7.60;5.82;;;35.80;99.90;;;;;;5074635;28;20628;-79
2023/07/08 12:42:30;;;;;;;6.50;5.43;;;34.80;99.90;;;;;;5075223;28;20562;-76
2023/07/08 12:44:56;;;;;;;10.68;6.20;;;34.50;99.90;;;;;;5057563;28;20560;-77
2023/07/08 12:47:22;;;;;;;7.20;6.13;;;34.10;99.90;;;;;;5056284;28;20307;-79
2023/07/08 12:49:48;;;;;;;7.70;6.35;;;33.90;99.90;;;;;;5075210;28;20161;-77
2023/07/08 12:52:22;;;;;;;9.98;7.25;;;33.50;99.90;;;;;;5075259;28;20172;-77
2023/07/08 12:54:47;;;;;;;10.50;5.93;;;33.30;1.00;;;;;;5075071;28;20664;-76
2023/07/08 12:57:15;;;;;;;10.05;6.32;;;32.40;99.90;;;;;;5074817;28;20176;-79
2023/07/08 12:59:41;;;;;;;7.30;5.85;;;31.40;1.00;;;;;;5075321;28;20252;-77
2023/07/08 13:02:16;;;;;;;9.35;5.85;;;30.60;99.90;;;;;;5075137;28;20244;-77
2023/07/08 13:04:45;;;;;;;11.50;5.75;;;29.90;1.00;;;;;;5074990;28;20177;-77